createdAt,value
2022-12-18T00:02:00.673Z,99383.00
2022-12-18T00:07:04.159Z,99374.00
2022-12-18T00:17:18.936Z,99379.00
2022-12-18T00:22:21.949Z,99380.00
2022-12-18T00:27:25.116Z,99385.00
2022-12-18T00:32:28.184Z,99384.00
2022-12-18T00:37:31.613Z,99399.00
2022-12-18T00:42:52.999Z,99395.00
2022-12-18T00:47:56.716Z,99391.00
2022-12-18T00:52:59.727Z,99408.00
2022-12-18T00:58:02.746Z,99409.00
2022-12-18T01:03:06.452Z,99410.00
2022-12-18T01:08:09.821Z,99405.00
2022-12-18T01:13:12.863Z,99397.00
2022-12-18T01:18:15.817Z,99386.00
2022-12-18T01:23:18.878Z,99422.00
2022-12-18T01:28:22.007Z,99414.00
2022-12-18T01:33:24.988Z,99417.00
2022-12-18T01:38:29.769Z,99406.00
2022-12-18T01:43:49.387Z,99416.00
2022-12-18T01:49:00.962Z,99437.00
2022-12-18T01:54:04.623Z,99427.00
2022-12-18T01:59:10.417Z,99430.00
2022-12-18T02:04:39.739Z,99434.00
2022-12-18T02:10:13.871Z,99449.00
2022-12-18T02:15:35.600Z,99441.00
2022-12-18T02:21:06.661Z,99451.00
2022-12-18T02:26:28.386Z,99438.00
2022-12-18T02:31:39.853Z,99440.00
2022-12-18T02:36:45.979Z,99444.00
2022-12-18T02:41:50.403Z,99443.00
2022-12-18T02:46:55.606Z,99434.00
2022-12-18T02:52:22.746Z,99431.00
2022-12-18T02:57:41.770Z,99439.00
2022-12-18T03:03:30.502Z,99431.00
2022-12-18T03:08:47.802Z,99446.00
2022-12-18T03:13:57.439Z,99435.00
2022-12-18T03:19:04.876Z,99448.00
2022-12-18T03:24:11.194Z,99431.00
2022-12-18T03:29:39.281Z,99448.00
2022-12-18T03:34:45.075Z,99447.00
2022-12-18T03:39:51.328Z,99455.00
2022-12-18T03:45:08.196Z,99434.00
2022-12-18T03:50:31.143Z,99453.00
2022-12-18T03:55:39.194Z,99446.00
2022-12-18T04:00:43.985Z,99457.00
2022-12-18T04:05:51.605Z,99458.00
2022-12-18T04:10:58.332Z,99456.00
2022-12-18T04:16:02.637Z,99456.00
2022-12-18T04:21:05.884Z,99449.00
2022-12-18T04:26:09.912Z,99465.00
2022-12-18T04:31:22.724Z,99472.00
2022-12-18T04:36:26.602Z,99468.00
2022-12-18T04:41:30.458Z,99476.00
2022-12-18T04:46:34.787Z,99464.00
2022-12-18T04:51:41.366Z,99457.00
2022-12-18T04:56:44.370Z,99460.00
2022-12-18T05:01:47.512Z,99474.00
2022-12-18T05:06:50.605Z,99468.00
2022-12-18T05:11:53.572Z,99449.00
2022-12-18T05:17:00.719Z,99469.00
2022-12-18T05:22:08.324Z,99471.00
2022-12-18T05:27:11.624Z,99481.00
2022-12-18T05:32:14.614Z,99472.00
2022-12-18T05:37:18.168Z,99467.00
2022-12-18T05:42:21.487Z,99479.00
2022-12-18T05:47:24.548Z,99476.00
2022-12-18T05:52:27.602Z,99477.00
2022-12-18T05:57:30.756Z,99468.00
2022-12-18T06:02:33.908Z,99492.00
2022-12-18T06:07:39.396Z,99492.00
2022-12-18T06:12:42.430Z,99512.00
2022-12-18T06:17:45.532Z,99520.00
2022-12-18T06:22:49.627Z,99512.00
2022-12-18T06:27:52.641Z,99519.00
2022-12-18T06:32:56.875Z,99512.00
2022-12-18T06:38:02.149Z,99506.00
2022-12-18T06:43:05.110Z,99531.00
2022-12-18T06:48:08.228Z,99530.00
2022-12-18T06:53:11.268Z,99530.00
2022-12-18T06:58:14.413Z,99528.00
2022-12-18T07:03:17.468Z,99529.00
2022-12-18T07:08:20.497Z,99529.00
2022-12-18T07:13:23.970Z,99517.00
2022-12-18T07:18:26.891Z,99518.00
2022-12-18T07:23:29.842Z,99521.00
2022-12-18T07:28:33.896Z,99540.00
2022-12-18T07:33:37.443Z,99532.00
2022-12-18T07:38:41.014Z,99528.00
2022-12-18T07:43:44.666Z,99544.00
2022-12-18T07:48:49.288Z,99541.00
2022-12-18T07:53:53.461Z,99533.00
2022-12-18T07:58:57.168Z,99539.00
2022-12-18T08:04:00.373Z,99562.00
2022-12-18T08:09:03.808Z,99538.00
2022-12-18T08:14:06.783Z,99539.00
2022-12-18T08:19:09.867Z,99538.00
2022-12-18T08:24:12.945Z,99546.00
2022-12-18T08:29:21.224Z,99563.00
2022-12-18T08:34:24.762Z,99565.00
2022-12-18T08:39:27.741Z,99561.00
2022-12-18T08:44:39.704Z,99554.00
2022-12-18T08:49:42.759Z,99547.00
2022-12-18T08:54:45.762Z,99560.00
2022-12-18T08:59:49.547Z,99555.00
2022-12-18T09:04:57.399Z,99551.00
2022-12-18T09:10:00.862Z,99547.00
2022-12-18T09:15:04.002Z,99543.00
2022-12-18T09:20:07.655Z,99566.00
2022-12-18T09:25:13.174Z,99555.00
2022-12-18T09:30:16.208Z,99572.00
2022-12-18T09:35:19.282Z,99572.00
2022-12-18T09:40:26.996Z,99561.00
2022-12-18T09:45:34.708Z,99544.00
2022-12-18T09:50:40.944Z,99530.00
2022-12-18T09:55:47.808Z,99527.00
2022-12-18T10:00:56.761Z,99513.00
2022-12-18T10:06:29.276Z,99514.00
2022-12-18T10:11:57.202Z,99497.00
2022-12-18T10:17:25.294Z,99489.00
2022-12-18T10:22:43.943Z,99489.00
2022-12-18T10:27:47.601Z,99468.00
2022-12-18T10:32:50.613Z,99465.00
2022-12-18T10:38:17.344Z,99467.00
2022-12-18T10:43:46.813Z,99460.00
2022-12-18T10:48:50.249Z,99449.00
2022-12-18T10:53:57.178Z,99456.00
2022-12-18T10:59:05.489Z,99464.00
2022-12-18T11:04:17.050Z,99448.00
2022-12-18T11:09:40.610Z,99438.00
2022-12-18T11:14:47.125Z,99431.00
2022-12-18T11:20:28.684Z,99426.00
2022-12-18T11:25:35.166Z,99430.00
2022-12-18T11:30:39.254Z,99443.00
2022-12-18T11:35:48.140Z,99440.00
2022-12-18T11:41:03.139Z,99443.00
2022-12-18T11:46:19.577Z,99458.00
2022-12-18T11:51:40.026Z,99476.00
2022-12-18T11:57:09.494Z,99464.00
2022-12-18T12:02:43.971Z,99474.00
2022-12-18T12:08:03.102Z,99482.00
2022-12-18T12:14:26.513Z,99463.00
2022-12-18T12:20:00.391Z,99461.00
2022-12-18T12:25:28.354Z,99463.00
2022-12-18T12:37:38.068Z,99470.00
2022-12-18T12:43:16.533Z,99464.00
2022-12-18T12:48:37.123Z,99448.00
2022-12-18T12:53:57.754Z,99450.00
2022-12-18T12:59:25.380Z,99438.00
2022-12-18T13:05:35.329Z,99456.00
2022-12-18T13:10:44.247Z,99459.00
2022-12-18T13:16:21.780Z,99449.00
2022-12-18T13:21:54.734Z,99451.00
2022-12-18T13:27:57.545Z,99458.00
2022-12-18T13:34:16.434Z,99431.00
2022-12-18T13:39:32.953Z,99430.00
2022-12-18T13:44:42.451Z,99429.00
2022-12-18T13:49:47.836Z,99433.00
2022-12-18T13:54:56.720Z,99440.00
2022-12-18T14:00:18.030Z,99430.00
2022-12-18T14:06:18.719Z,99426.00
2022-12-18T14:11:28.941Z,99431.00
2022-12-18T14:17:03.712Z,99423.00
2022-12-18T14:22:38.772Z,99424.00
2022-12-18T14:28:19.193Z,99415.00
2022-12-18T14:33:42.953Z,99417.00
2022-12-18T14:38:59.970Z,99424.00
2022-12-18T14:44:15.449Z,99409.00
2022-12-18T14:49:31.723Z,99414.00
2022-12-18T14:54:38.510Z,99408.00
2022-12-18T14:59:41.877Z,99424.00
2022-12-18T15:05:30.600Z,99406.00
2022-12-18T15:10:35.650Z,99394.00
2022-12-18T15:15:38.772Z,99400.00
2022-12-18T15:20:57.715Z,99399.00
2022-12-18T15:26:27.009Z,99383.00
2022-12-18T15:37:20.314Z,99396.00
2022-12-18T15:43:00.135Z,99411.00
2022-12-18T15:48:30.825Z,99420.00
2022-12-18T15:59:01.963Z,99417.00
2022-12-18T16:04:27.126Z,99403.00
2022-12-18T16:09:34.597Z,99414.00
2022-12-18T16:14:37.724Z,99414.00
2022-12-18T16:19:41.545Z,99421.00
2022-12-18T16:24:44.821Z,99413.00
2022-12-18T16:29:48.363Z,99411.00
2022-12-18T16:34:51.440Z,99402.00
2022-12-18T16:39:55.712Z,99403.00
2022-12-18T16:45:04.714Z,99379.00
2022-12-18T16:50:10.169Z,99386.00
2022-12-18T16:55:13.221Z,99396.00
2022-12-18T17:00:16.814Z,99383.00
2022-12-18T17:05:32.360Z,99373.00
2022-12-18T17:10:46.560Z,99370.00
2022-12-18T17:16:21.378Z,99387.00
2022-12-18T17:21:45.641Z,99364.00
2022-12-18T17:27:06.553Z,99357.00
2022-12-18T17:32:21.556Z,99345.00
2022-12-18T17:37:44.871Z,99343.00
2022-12-18T17:42:53.958Z,99342.00
2022-12-18T17:48:09.891Z,99323.00
2022-12-18T17:53:28.163Z,99310.00
2022-12-18T17:58:32.170Z,99322.00
2022-12-18T18:03:46.909Z,99306.00
2022-12-18T18:08:59.539Z,99313.00
2022-12-18T18:14:10.437Z,99299.00
2022-12-18T18:19:17.548Z,99289.00
2022-12-18T18:24:27.031Z,99287.00
2022-12-18T18:29:31.376Z,99285.00
2022-12-18T18:34:34.511Z,99278.00
2022-12-18T18:39:38.042Z,99272.00
2022-12-18T18:44:45.732Z,99280.00
2022-12-18T18:49:51.954Z,99290.00
2022-12-18T18:55:12.398Z,99271.00
2022-12-18T19:00:16.901Z,99272.00
2022-12-18T19:05:32.351Z,99264.00
2022-12-18T19:10:42.007Z,99255.00
2022-12-18T19:15:46.221Z,99241.00
2022-12-18T19:21:27.106Z,99238.00
2022-12-18T19:26:50.899Z,99238.00
2022-12-18T19:32:16.528Z,99240.00
2022-12-18T19:37:29.883Z,99210.00
2022-12-18T19:42:56.392Z,99212.00
2022-12-18T19:48:04.118Z,99198.00
2022-12-18T19:53:21.720Z,99196.00
2022-12-18T19:58:35.356Z,99201.00
2022-12-18T20:04:20.642Z,99200.00
2022-12-18T20:09:57.113Z,99197.00
2022-12-18T20:15:15.211Z,99203.00
2022-12-18T20:20:22.705Z,99187.00
2022-12-18T20:25:26.294Z,99185.00
2022-12-18T20:30:30.014Z,99196.00
2022-12-18T20:35:33.886Z,99212.00
2022-12-18T20:40:40.737Z,99188.00
2022-12-18T20:45:44.217Z,99172.00
2022-12-18T20:51:23.480Z,99172.00
2022-12-18T20:56:46.149Z,99177.00
2022-12-18T21:02:15.649Z,99185.00
2022-12-18T21:07:28.592Z,99184.00
2022-12-18T21:13:02.149Z,99188.00
2022-12-18T21:18:22.462Z,99192.00
2022-12-18T21:23:35.571Z,99191.00
2022-12-18T21:28:53.467Z,99195.00
2022-12-18T21:34:09.556Z,99193.00
2022-12-18T21:39:18.221Z,99170.00
2022-12-18T21:44:24.391Z,99157.00
2022-12-18T21:49:27.648Z,99162.00
2022-12-18T21:54:30.940Z,99150.00
2022-12-18T21:59:37.483Z,99139.00
2022-12-18T22:04:53.213Z,99149.00
2022-12-18T22:09:58.385Z,99148.00
2022-12-18T22:15:04.629Z,99137.00
2022-12-18T22:20:09.515Z,99124.00
2022-12-18T22:25:12.864Z,99133.00
2022-12-18T22:30:16.047Z,99105.00
2022-12-18T22:35:19.203Z,99109.00
2022-12-18T22:40:26.852Z,99102.00
2022-12-18T22:45:30.148Z,99106.00
2022-12-18T22:50:33.979Z,99089.00
2022-12-18T22:55:36.974Z,99082.00
2022-12-18T23:00:41.063Z,99076.00
2022-12-18T23:06:11.125Z,99073.00
2022-12-18T23:11:29.115Z,99060.00
2022-12-18T23:16:44.540Z,99069.00
2022-12-18T23:22:12.655Z,99040.00
2022-12-18T23:27:32.073Z,99042.00
2022-12-18T23:32:58.846Z,99049.00
2022-12-18T23:38:22.973Z,99038.00
2022-12-18T23:43:50.409Z,99034.00
2022-12-18T23:49:00.884Z,99042.00
2022-12-18T23:54:10.444Z,99029.00
2022-12-18T23:59:21.356Z,99038.00
